Time;durP1;ratioP1;P1;durP2;ratioP2;P2;SDS_P1;SDS_P2;PMS_P1;PMS_P2;Temp;Humidity;BMP_temperature;BMP_pressure;BME280_temperature;BME280_humidity;BME280_pressure;Samples;Min_cycle;Max_cycle;Signal;HPM_P1;HPM_P2
2022/04/05 00:01:41;;;;;;;2.88;1.88;;;;;;;;;;5042698;28;20048;-73
2022/04/05 00:04:07;;;;;;;4.13;2.10;;;;;;;;;;5044353;28;20162;-73
2022/04/05 00:06:33;;;;;;;3.00;1.92;;;;;;;;;;5043031;28;20033;-73
2022/04/05 00:08:59;;;;;;;8.35;2.13;;;;;;;;;;5043578;28;20569;-73
2022/04/05 00:11:24;;;;;;;4.47;2.20;;;;;;;;;;5038872;28;20037;-73
2022/04/05 00:13:50;;;;;;;9.07;2.30;;;;;;;;;;5042629;28;20036;-74
2022/04/05 00:16:16;;;;;;;6.30;2.13;;;;;;;;;;5033007;28;20099;-73
2022/04/05 00:18:42;;;;;;;5.53;2.03;;;;;;;;;;5036907;28;20044;-74
2022/04/05 00:21:08;;;;;;;3.92;1.98;;;;;;;;;;5042998;28;20119;-73
2022/04/05 00:23:34;;;;;;;7.50;2.40;;;;;;;;;;5037412;28;20112;-73
2022/04/05 00:26:00;;;;;;;4.03;1.60;;;;;;;;;;5042869;28;20394;-73
2022/04/05 00:28:26;;;;;;;4.10;1.90;;;;;;;;;;5040551;28;20055;-73
2022/04/05 00:30:52;;;;;;;7.53;1.88;;;;;;;;;;5044670;28;20032;-73
2022/04/05 00:33:18;;;;;;;3.00;1.60;;;;;;;;;;5043872;28;20399;-73
2022/04/05 00:35:44;;;;;;;6.75;1.85;;;;;;;;;;5046467;28;20464;-74
2022/04/05 00:38:10;;;;;;;9.38;1.65;;;;;;;;;;5048857;28;20493;-74
2022/04/05 00:40:37;;;;;;;10.65;1.70;;;;;;;;;;5050041;28;20043;-74
2022/04/05 00:43:05;;;;;;;9.80;1.65;;;;;;;;;;5038159;28;20037;-74
2022/04/05 00:45:31;;;;;;;5.80;1.40;;;;;;;;;;5043408;28;20025;-74
2022/04/05 00:47:57;;;;;;;9.43;1.52;;;;;;;;;;5049193;28;20055;-73
2022/04/05 00:50:24;;;;;;;5.03;1.20;;;;;;;;;;5046027;28;20436;-73
2022/04/05 00:52:50;;;;;;;6.60;1.20;;;;;;;;;;5049034;28;20056;-74
2022/04/05 00:55:19;;;;;;;8.35;1.45;;;;;;;;;;5049457;28;20677;-73
2022/04/05 00:57:45;;;;;;;8.05;1.50;;;;;;;;;;5050965;28;20013;-74
2022/04/05 01:00:12;;;;;;;3.88;1.33;;;;;;;;;;5046488;28;20566;-74
2022/04/05 01:02:38;;;;;;;7.80;1.70;;;;;;;;;;5049527;28;20061;-74
2022/04/05 01:05:05;;;;;;;7.60;1.40;;;;;;;;;;5049725;28;20597;-74
2022/04/05 01:07:32;;;;;;;5.05;1.55;;;;;;;;;;5035534;28;20030;-74
2022/04/05 01:09:59;;;;;;;4.20;1.10;;;;;;;;;;5040743;28;20033;-74
2022/04/05 01:12:25;;;;;;;11.35;1.63;;;;;;;;;;5049249;28;20561;-74
2022/04/05 01:14:51;;;;;;;7.78;1.60;;;;;;;;;;5049666;28;20053;-75
2022/04/05 01:17:17;;;;;;;8.63;1.85;;;;;;;;;;5044161;28;20096;-74
2022/04/05 01:19:44;;;;;;;5.78;1.65;;;;;;;;;;5045022;28;20021;-74
2022/04/05 01:22:10;;;;;;;5.60;1.50;;;;;;;;;;5042320;28;20119;-74
2022/04/05 01:24:36;;;;;;;9.30;1.73;;;;;;;;;;5042902;28;20059;-74
2022/04/05 01:27:07;;;;;;;8.02;1.70;;;;;;;;;;5048264;28;20025;-74
2022/04/05 01:29:33;;;;;;;4.90;1.48;;;;;;;;;;5045398;28;20044;-74
2022/04/05 01:32:01;;;;;;;8.80;2.10;;;;;;;;;;5044709;28;20036;-74
2022/04/05 01:34:28;;;;;;;11.30;2.80;;;;;;;;;;5047687;28;20039;-73
2022/04/05 01:36:56;;;;;;;9.27;1.70;;;;;;;;;;5044161;28;20017;-74
2022/04/05 01:39:27;;;;;;;8.95;1.88;;;;;;;;;;5047484;28;20029;-73
2022/04/05 01:41:54;;;;;;;7.43;1.70;;;;;;;;;;5039939;28;20028;-73
2022/04/05 01:44:20;;;;;;;8.88;1.92;;;;;;;;;;5048016;28;20064;-73
2022/04/05 01:46:46;;;;;;;12.25;1.70;;;;;;;;;;5046722;28;20468;-73
2022/04/05 01:49:16;;;;;;;7.32;1.63;;;;;;;;;;5050300;28;20033;-73
2022/04/05 01:51:43;;;;;;;5.43;1.45;;;;;;;;;;5042937;28;20025;-73
2022/04/05 01:54:09;;;;;;;8.23;1.73;;;;;;;;;;5043578;28;20025;-74
2022/04/05 01:56:41;;;;;;;5.15;1.30;;;;;;;;;;5048240;28;20036;-74
2022/04/05 01:59:07;;;;;;;6.72;1.55;;;;;;;;;;5042814;28;20476;-74
2022/04/05 02:01:33;;;;;;;5.22;1.48;;;;;;;;;;5044995;28;20025;-74
2022/04/05 02:03:59;;;;;;;10.93;1.83;;;;;;;;;;5047241;28;20033;-74
2022/04/05 02:06:25;;;;;;;7.20;1.60;;;;;;;;;;5048506;28;20121;-74
2022/04/05 02:08:51;;;;;;;6.30;1.45;;;;;;;;;;5047224;28;20107;-74
2022/04/05 02:11:17;;;;;;;9.88;1.50;;;;;;;;;;5039225;28;20036;-74
2022/04/05 02:13:43;;;;;;;8.75;1.40;;;;;;;;;;5047000;28;20044;-74
2022/04/05 02:16:09;;;;;;;6.18;1.38;;;;;;;;;;5042128;28;20028;-74
2022/04/05 02:18:37;;;;;;;13.13;1.88;;;;;;;;;;5045715;28;20120;-74
2022/04/05 02:21:05;;;;;;;11.10;1.77;;;;;;;;;;5040204;28;20483;-74
2022/04/05 02:23:31;;;;;;;6.68;1.60;;;;;;;;;;5048782;28;20118;-74
2022/04/05 02:25:57;;;;;;;10.52;1.92;;;;;;;;;;5045823;28;20020;-74
2022/04/05 02:28:23;;;;;;;10.88;1.80;;;;;;;;;;5041166;28;20099;-74
2022/04/05 02:30:49;;;;;;;15.05;2.05;;;;;;;;;;5040239;28;20032;-74
2022/04/05 02:33:15;;;;;;;12.63;2.42;;;;;;;;;;5046838;28;20563;-74
2022/04/05 02:35:43;;;;;;;8.80;1.60;;;;;;;;;;5045345;28;20104;-74
2022/04/05 02:38:08;;;;;;;7.85;1.75;;;;;;;;;;5046181;28;20029;-75
2022/04/05 02:40:34;;;;;;;12.52;1.80;;;;;;;;;;5045460;28;20009;-74
2022/04/05 02:43:00;;;;;;;7.63;1.55;;;;;;;;;;5045791;28;20090;-75
2022/04/05 02:45:26;;;;;;;11.73;1.80;;;;;;;;;;5046618;28;20037;-75
2022/04/05 02:47:52;;;;;;;7.03;1.55;;;;;;;;;;5047534;28;20055;-74
2022/04/05 02:50:18;;;;;;;9.70;1.63;;;;;;;;;;5039822;28;20056;-74
2022/04/05 02:52:48;;;;;;;10.75;2.03;;;;;;;;;;5044250;28;20017;-75
2022/04/05 02:55:15;;;;;;;11.10;1.85;;;;;;;;;;5045561;28;20024;-75
2022/04/05 02:57:41;;;;;;;13.55;1.95;;;;;;;;;;5044170;28;20567;-75
2022/04/05 03:00:08;;;;;;;8.55;1.63;;;;;;;;;;5046083;28;20056;-75
2022/04/05 03:02:34;;;;;;;9.02;2.03;;;;;;;;;;5043240;28;20029;-74
2022/04/05 03:05:01;;;;;;;9.90;2.35;;;;;;;;;;5041807;28;20040;-75
2022/04/05 03:07:27;;;;;;;6.55;1.73;;;;;;;;;;5042960;28;20029;-74
2022/04/05 03:09:53;;;;;;;6.55;1.77;;;;;;;;;;5043750;28;20148;-74
2022/04/05 03:12:19;;;;;;;6.28;1.38;;;;;;;;;;5042903;28;20486;-74
2022/04/05 03:14:45;;;;;;;9.60;1.52;;;;;;;;;;5039389;28;20078;-74
2022/04/05 03:17:11;;;;;;;7.55;1.75;;;;;;;;;;5047517;28;20109;-75
2022/04/05 03:19:37;;;;;;;12.95;1.98;;;;;;;;;;5044746;28;20037;-74
2022/04/05 03:22:05;;;;;;;7.55;1.48;;;;;;;;;;5044734;28;20041;-75
2022/04/05 03:24:31;;;;;;;8.07;1.83;;;;;;;;;;5046280;28;20116;-74
2022/04/05 03:26:57;;;;;;;6.60;1.73;;;;;;;;;;5036414;28;20051;-74
2022/04/05 03:29:23;;;;;;;10.85;2.38;;;;;;;;;;5041705;28;20037;-74
2022/04/05 03:31:49;;;;;;;5.80;1.85;;;;;;;;;;5045664;28;20043;-74
2022/04/05 03:34:15;;;;;;;8.93;1.83;;;;;;;;;;5042461;28;20029;-74
2022/04/05 03:36:43;;;;;;;15.68;2.38;;;;;;;;;;5046724;28;20265;-75
2022/04/05 03:39:10;;;;;;;12.68;2.08;;;;;;;;;;5046685;28;20032;-75
2022/04/05 03:41:36;;;;;;;13.20;2.50;;;;;;;;;;5047406;28;20504;-75
2022/04/05 03:44:02;;;;;;;7.50;1.73;;;;;;;;;;5046265;28;20391;-74
2022/04/05 03:46:28;;;;;;;9.07;2.38;;;;;;;;;;5041476;28;20032;-74
2022/04/05 03:48:54;;;;;;;15.18;2.53;;;;;;;;;;5041793;28;20024;-75
2022/04/05 03:51:20;;;;;;;9.05;2.42;;;;;;;;;;5048515;28;20029;-75
2022/04/05 03:53:46;;;;;;;10.70;2.47;;;;;;;;;;5042143;28;20056;-75
2022/04/05 03:56:12;;;;;;;8.07;2.30;;;;;;;;;;5042879;28;20025;-75
2022/04/05 03:58:38;;;;;;;12.68;1.90;;;;;;;;;;5044274;28;20476;-75
2022/04/05 04:01:04;;;;;;;16.20;2.58;;;;;;;;;;5045508;28;20021;-74
2022/04/05 04:03:30;;;;;;;14.20;2.28;;;;;;;;;;5045948;28;20629;-74
2022/04/05 04:05:56;;;;;;;11.20;2.10;;;;;;;;;;5045976;28;20068;-74
2022/04/05 04:08:22;;;;;;;7.93;1.95;;;;;;;;;;5042734;28;20036;-75
2022/04/05 04:10:48;;;;;;;10.82;2.72;;;;;;;;;;5045971;28;20391;-74
2022/04/05 04:13:15;;;;;;;10.43;2.15;;;;;;;;;;5046649;28;20053;-74
2022/04/05 04:15:41;;;;;;;15.93;3.03;;;;;;;;;;5049202;28;20043;-75
2022/04/05 04:18:07;;;;;;;6.85;1.90;;;;;;;;;;5043700;28;20044;-74
2022/04/05 04:20:33;;;;;;;15.02;2.63;;;;;;;;;;5046594;28;20049;-74
2022/04/05 04:22:59;;;;;;;14.25;2.65;;;;;;;;;;5044684;28;20028;-74
2022/04/05 04:25:25;;;;;;;19.08;2.83;;;;;;;;;;5048608;28;20029;-75
2022/04/05 04:27:51;;;;;;;11.95;2.17;;;;;;;;;;5048837;28;20471;-74
2022/04/05 04:30:17;;;;;;;11.15;2.25;;;;;;;;;;5043320;28;20108;-74
2022/04/05 04:32:44;;;;;;;12.25;2.50;;;;;;;;;;5046139;28;20117;-74
2022/04/05 04:35:10;;;;;;;8.30;2.22;;;;;;;;;;5046348;28;20044;-73
2022/04/05 04:37:36;;;;;;;12.20;2.55;;;;;;;;;;5051012;28;20040;-73
2022/04/05 04:40:02;;;;;;;19.08;2.85;;;;;;;;;;5046457;28;20013;-73
2022/04/05 04:42:28;;;;;;;6.88;1.98;;;;;;;;;;5044243;28;20083;-74
2022/04/05 04:44:54;;;;;;;9.65;1.88;;;;;;;;;;5054122;28;20028;-75
2022/04/05 04:47:20;;;;;;;10.60;2.33;;;;;;;;;;5047410;28;20041;-77
2022/04/05 04:49:46;;;;;;;7.38;2.03;;;;;;;;;;5050748;28;20472;-79
2022/04/05 04:52:12;;;;;;;8.05;1.83;;;;;;;;;;5049295;28;20040;-78
2022/04/05 04:54:37;;;;;;;13.48;2.10;;;;;;;;;;5051514;28;20031;-77
2022/04/05 04:57:04;;;;;;;14.43;2.28;;;;;;;;;;5048552;28;20025;-78
2022/04/05 04:59:29;;;;;;;11.77;2.47;;;;;;;;;;5049929;28;20455;-77
2022/04/05 05:01:55;;;;;;;8.00;2.25;;;;;;;;;;5046672;28;20045;-78
2022/04/05 05:04:21;;;;;;;11.77;2.42;;;;;;;;;;5046233;28;20048;-76
2022/04/05 05:06:47;;;;;;;14.43;2.25;;;;;;;;;;5042388;28;20052;-78
2022/04/05 05:09:13;;;;;;;12.77;3.03;;;;;;;;;;5045969;28;20020;-79
2022/04/05 05:11:39;;;;;;;7.50;2.03;;;;;;;;;;5049591;28;20041;-79
2022/04/05 05:14:05;;;;;;;19.83;2.30;;;;;;;;;;5050140;28;20116;-80
2022/04/05 05:16:31;;;;;;;16.88;2.20;;;;;;;;;;5049724;28;20025;-77
2022/04/05 05:18:57;;;;;;;10.13;1.98;;;;;;;;;;5044304;28;20068;-77
2022/04/05 05:21:35;;;;;;;9.38;2.10;;;;;;;;;;5045776;28;20617;-76
2022/04/05 05:24:01;;;;;;;8.95;1.75;;;;;;;;;;5038941;28;20029;-77
2022/04/05 05:26:27;;;;;;;15.27;2.17;;;;;;;;;;5048824;28;20078;-77
2022/04/05 05:28:53;;;;;;;25.67;4.80;;;;;;;;;;5042781;28;20017;-76
2022/04/05 05:31:19;;;;;;;10.02;2.10;;;;;;;;;;5045914;28;20029;-76
2022/04/05 05:33:45;;;;;;;10.68;2.13;;;;;;;;;;5040711;28;20056;-77
2022/04/05 05:36:11;;;;;;;11.57;2.00;;;;;;;;;;5049534;28;20027;-76
2022/04/05 05:38:37;;;;;;;8.05;1.83;;;;;;;;;;5041419;28;20475;-76
2022/04/05 05:41:04;;;;;;;14.73;2.70;;;;;;;;;;5045113;28;20029;-77
2022/04/05 05:43:30;;;;;;;10.52;2.15;;;;;;;;;;5048724;28;20029;-78
2022/04/05 05:45:56;;;;;;;13.05;2.15;;;;;;;;;;5049901;28;20033;-84
2022/04/05 05:48:21;;;;;;;15.00;3.17;;;;;;;;;;5054198;28;20040;-84
2022/04/05 05:50:49;;;;;;;7.13;2.20;;;;;;;;;;5046332;28;20013;-82
2022/04/05 05:53:15;;;;;;;17.20;2.75;;;;;;;;;;5046801;28;20036;-81
2022/04/05 05:55:48;;;;;;;9.13;2.20;;;;;;;;;;5046034;28;20021;-83
2022/04/05 05:58:14;;;;;;;11.10;2.83;;;;;;;;;;5042122;28;20025;-83
2022/04/05 06:00:40;;;;;;;13.38;2.40;;;;;;;;;;5045602;28;20037;-83
2022/04/05 06:03:06;;;;;;;11.82;2.42;;;;;;;;;;5039976;28;20538;-83
2022/04/05 06:05:32;;;;;;;12.25;2.28;;;;;;;;;;5041601;28;20076;-82
2022/04/05 06:07:58;;;;;;;7.30;1.65;;;;;;;;;;5048674;28;20434;-81
2022/04/05 06:10:25;;;;;;;8.63;2.13;;;;;;;;;;5050311;28;20117;-81
2022/04/05 06:12:51;;;;;;;13.30;2.35;;;;;;;;;;5050543;28;20035;-81
2022/04/05 06:15:18;;;;;;;10.07;2.13;;;;;;;;;;5048900;28;20045;-82
2022/04/05 06:17:45;;;;;;;11.45;2.58;;;;;;;;;;5049749;28;20040;-83
2022/04/05 06:20:13;;;;;;;13.27;2.35;;;;;;;;;;5045756;28;20087;-82
2022/04/05 06:22:46;;;;;;;6.90;1.50;;;;;;;;;;5042771;28;20116;-81
2022/04/05 06:25:13;;;;;;;5.30;1.20;;;;;;;;;;5037999;28;20032;-82
2022/04/05 06:27:39;;;;;;;8.75;1.80;;;;;;;;;;5047565;28;20036;-82
2022/04/05 06:30:06;;;;;;;5.40;1.35;;;;;;;;;;5054777;28;20379;-83
2022/04/05 06:32:32;;;;;;;8.85;1.60;;;;;;;;;;5042893;28;20093;-82
2022/04/05 06:34:58;;;;;;;12.15;1.73;;;;;;;;;;5043834;28;20515;-83
2022/04/05 06:37:24;;;;;;;11.20;2.00;;;;;;;;;;5050306;28;20104;-83
2022/04/05 06:39:50;;;;;;;8.65;1.73;;;;;;;;;;5048113;28;20037;-83
2022/04/05 06:42:16;;;;;;;3.42;1.38;;;;;;;;;;5047627;28;20040;-83
2022/04/05 06:44:42;;;;;;;5.03;1.60;;;;;;;;;;5048310;28;20032;-75
2022/04/05 06:47:11;;;;;;;6.05;1.30;;;;;;;;;;5047959;28;20086;-75
2022/04/05 06:49:37;;;;;;;6.00;1.52;;;;;;;;;;5047019;28;20048;-76
2022/04/05 06:52:03;;;;;;;5.70;2.13;;;;;;;;;;5047795;28;20075;-75
2022/04/05 06:54:29;;;;;;;9.32;1.95;;;;;;;;;;5049231;28;20464;-75
2022/04/05 06:56:55;;;;;;;4.10;1.38;;;;;;;;;;5047544;28;20071;-75
2022/04/05 06:59:21;;;;;;;6.75;1.58;;;;;;;;;;5047849;28;20037;-76
2022/04/05 07:01:47;;;;;;;7.45;1.27;;;;;;;;;;5048402;28;20041;-76
2022/04/05 07:04:13;;;;;;;7.68;1.60;;;;;;;;;;5045798;28;20575;-75
2022/04/05 07:06:39;;;;;;;5.00;1.45;;;;;;;;;;5047212;28;20045;-76
2022/04/05 07:09:05;;;;;;;10.57;1.80;;;;;;;;;;5044621;28;20043;-75
2022/04/05 07:11:31;;;;;;;6.88;1.42;;;;;;;;;;5048243;28;20055;-76
2022/04/05 07:13:57;;;;;;;5.15;1.48;;;;;;;;;;5048132;28;20494;-75
2022/04/05 07:16:23;;;;;;;5.75;1.40;;;;;;;;;;5047399;28;20128;-76
2022/04/05 07:18:49;;;;;;;7.85;1.50;;;;;;;;;;5042637;28;20025;-76
2022/04/05 07:21:15;;;;;;;7.65;1.42;;;;;;;;;;5035367;28;20048;-75
2022/04/05 07:23:44;;;;;;;7.40;1.35;;;;;;;;;;5047581;28;20484;-76
2022/04/05 07:26:10;;;;;;;7.22;1.75;;;;;;;;;;5045155;28;20116;-76
2022/04/05 07:28:36;;;;;;;7.00;1.83;;;;;;;;;;5046030;28;20021;-76
2022/04/05 07:31:03;;;;;;;5.68;1.65;;;;;;;;;;5049070;28;20495;-75
2022/04/05 07:33:29;;;;;;;4.45;1.30;;;;;;;;;;5046434;28;20029;-75
2022/04/05 07:35:55;;;;;;;6.50;2.22;;;;;;;;;;5045033;28;20460;-77
2022/04/05 07:38:21;;;;;;;7.78;1.52;;;;;;;;;;5038099;28;20041;-77
2022/04/05 07:40:50;;;;;;;9.73;1.50;;;;;;;;;;5045985;28;20210;-76
2022/04/05 07:43:17;;;;;;;10.77;1.85;;;;;;;;;;5040791;28;20025;-77
2022/04/05 07:45:44;;;;;;;6.53;1.50;;;;;;;;;;5047253;28;20061;-75
2022/04/05 07:48:10;;;;;;;4.35;1.30;;;;;;;;;;5046497;28;20126;-75
2022/04/05 07:50:36;;;;;;;15.45;1.83;;;;;;;;;;5046103;28;20157;-71
2022/04/05 07:53:02;;;;;;;8.25;1.40;;;;;;;;;;5044799;28;20132;-73
2022/04/05 07:55:28;;;;;;;4.28;1.40;;;;;;;;;;5048547;28;20031;-74
2022/04/05 07:57:54;;;;;;;6.10;1.48;;;;;;;;;;5045796;28;20096;-73
2022/04/05 08:00:23;;;;;;;8.07;1.75;;;;;;;;;;5044033;28;20817;-73
2022/04/05 08:02:50;;;;;;;6.03;1.55;;;;;;;;;;5038324;28;20040;-76
2022/04/05 08:05:16;;;;;;;4.55;1.20;;;;;;;;;;5039075;28;20040;-74
2022/04/05 08:07:43;;;;;;;5.07;1.42;;;;;;;;;;5044098;28;20021;-77
2022/04/05 08:10:09;;;;;;;7.97;1.45;;;;;;;;;;5047975;28;20041;-76
2022/04/05 08:12:39;;;;;;;5.53;1.50;;;;;;;;;;5047494;28;20025;-77
2022/04/05 08:15:05;;;;;;;2.60;1.08;;;;;;;;;;5048626;28;20032;-77
2022/04/05 08:17:31;;;;;;;3.40;1.10;;;;;;;;;;5044754;28;20028;-80
2022/04/05 08:19:57;;;;;;;5.22;1.45;;;;;;;;;;5046993;28;20021;-79
2022/04/05 08:22:23;;;;;;;5.30;1.35;;;;;;;;;;5046634;28;20025;-83
2022/04/05 08:24:49;;;;;;;7.63;1.30;;;;;;;;;;5048753;28;20032;-81
2022/04/05 08:27:15;;;;;;;4.90;1.10;;;;;;;;;;5044714;28;20033;-80
2022/04/05 08:29:41;;;;;;;6.07;1.20;;;;;;;;;;5045619;28;20041;-79
2022/04/05 08:32:07;;;;;;;6.35;1.30;;;;;;;;;;5046514;28;20036;-80
2022/04/05 08:34:33;;;;;;;8.60;1.20;;;;;;;;;;5046415;28;20036;-79
2022/04/05 08:36:59;;;;;;;6.45;1.17;;;;;;;;;;5048340;28;20112;-77
2022/04/05 08:39:28;;;;;;;7.28;1.30;;;;;;;;;;5045872;28;20040;-77
2022/04/05 08:41:55;;;;;;;8.32;1.63;;;;;;;;;;5047783;28;20433;-77
2022/04/05 08:44:23;;;;;;;7.28;2.13;;;;;;;;;;5047191;28;20028;-77
2022/04/05 08:46:50;;;;;;;10.45;2.28;;;;;;;;;;5048354;28;20032;-77
2022/04/05 08:49:16;;;;;;;7.68;2.17;;;;;;;;;;5046930;28;20116;-77
2022/04/05 08:51:42;;;;;;;7.70;1.65;;;;;;;;;;5047957;28;20120;-77
2022/04/05 08:54:08;;;;;;;7.57;1.63;;;;;;;;;;5042197;28;20482;-77
2022/04/05 08:56:34;;;;;;;7.75;1.70;;;;;;;;;;5045825;28;20021;-77
2022/04/05 08:59:00;;;;;;;7.40;1.70;;;;;;;;;;5050719;28;20078;-77
2022/04/05 09:01:29;;;;;;;7.40;1.45;;;;;;;;;;5051725;28;20037;-78
2022/04/05 09:03:58;;;;;;;5.30;1.33;;;;;;;;;;5050317;28;20466;-79
2022/04/05 09:06:29;;;;;;;3.33;0.93;;;;;;;;;;5041757;28;20060;-77
2022/04/05 09:09:11;;;;;;;3.78;0.90;;;;;;;;;;5045988;28;20510;-77
2022/04/05 09:11:37;;;;;;;5.68;1.20;;;;;;;;;;5048859;28;20032;-77
2022/04/05 09:14:04;;;;;;;7.13;1.05;;;;;;;;;;5043306;28;20025;-77
2022/04/05 09:16:31;;;;;;;7.60;1.58;;;;;;;;;;5049706;28;20129;-77
2022/04/05 09:18:58;;;;;;;6.30;1.10;;;;;;;;;;5051299;28;20059;-76
2022/04/05 09:21:24;;;;;;;5.47;1.42;;;;;;;;;;5050087;28;20028;-77
2022/04/05 09:23:52;;;;;;;4.68;1.23;;;;;;;;;;5049556;28;20041;-77
2022/04/05 09:26:18;;;;;;;5.00;1.10;;;;;;;;;;5049842;28;20065;-77
2022/04/05 09:28:51;;;;;;;8.02;1.70;;;;;;;;;;5051190;28;20041;-77
2022/04/05 09:31:18;;;;;;;5.03;1.42;;;;;;;;;;5046725;28;20032;-75
2022/04/05 09:34:02;;;;;;;7.82;1.50;;;;;;;;;;5041096;28;20047;-73
2022/04/05 09:36:35;;;;;;;8.40;1.60;;;;;;;;;;5047822;28;20059;-78
2022/04/05 09:39:21;;;;;;;12.50;1.58;;;;;;;;;;5050683;28;20033;-79
2022/04/05 09:41:48;;;;;;;10.88;1.58;;;;;;;;;;5049384;28;20028;-77
2022/04/05 09:44:24;;;;;;;7.35;1.50;;;;;;;;;;5051064;28;20017;-77
2022/04/05 09:46:52;;;;;;;7.85;1.40;;;;;;;;;;5047969;28;20033;-77
2022/04/05 09:49:18;;;;;;;8.65;1.40;;;;;;;;;;5044398;28;20111;-77
2022/04/05 09:51:47;;;;;;;4.53;1.13;;;;;;;;;;5049530;28;20124;-78
2022/04/05 09:54:29;;;;;;;5.78;1.20;;;;;;;;;;5046903;28;20419;-78
2022/04/05 09:56:59;;;;;;;3.85;1.23;;;;;;;;;;5049311;28;20029;-78
2022/04/05 09:59:25;;;;;;;9.07;1.30;;;;;;;;;;5049371;28;20029;-80
2022/04/05 10:01:56;;;;;;;5.07;1.42;;;;;;;;;;5062264;28;20043;-82
2022/04/05 10:04:22;;;;;;;12.27;1.45;;;;;;;;;;5038394;28;20025;-80
2022/04/05 10:06:48;;;;;;;6.22;1.33;;;;;;;;;;5037841;28;20045;-79
2022/04/05 10:09:15;;;;;;;11.55;1.70;;;;;;;;;;5048240;28;20158;-78
2022/04/05 10:11:42;;;;;;;6.65;1.48;;;;;;;;;;5044725;28;20037;-80
2022/04/05 10:14:14;;;;;;;3.65;0.98;;;;;;;;;;5059320;28;20028;-83
2022/04/05 10:16:40;;;;;;;9.82;1.55;;;;;;;;;;5039808;28;20490;-83
2022/04/05 10:19:08;;;;;;;9.10;1.50;;;;;;;;;;5044653;28;20025;-82
2022/04/05 10:21:35;;;;;;;7.55;1.23;;;;;;;;;;5034752;28;20677;-82
2022/04/05 10:24:02;;;;;;;5.82;1.10;;;;;;;;;;5044165;28;20043;-81
2022/04/05 10:26:30;;;;;;;5.93;1.75;;;;;;;;;;5035491;28;20039;-84
2022/04/05 10:28:57;;;;;;;5.32;1.33;;;;;;;;;;5042332;28;20029;-84
2022/04/05 10:31:29;;;;;;;7.15;1.58;;;;;;;;;;5045719;28;20104;-83
2022/04/05 10:34:01;;;;;;;6.30;1.42;;;;;;;;;;5042276;28;20028;-82
2022/04/05 10:36:27;;;;;;;5.45;1.75;;;;;;;;;;5037921;28;20365;-82
2022/04/05 10:39:12;;;;;;;4.13;1.20;;;;;;;;;;5041981;28;20021;-82
2022/04/05 10:41:37;;;;;;;7.80;1.50;;;;;;;;;;5040603;28;20036;-83
2022/04/05 10:44:18;;;;;;;9.40;1.63;;;;;;;;;;5044901;28;20032;-83
2022/04/05 10:46:52;;;;;;;11.02;1.48;;;;;;;;;;5040547;28;20036;-84
2022/04/05 10:49:37;;;;;;;3.55;1.00;;;;;;;;;;5035003;28;20041;-82
2022/04/05 10:52:10;;;;;;;5.85;1.45;;;;;;;;;;5041254;28;20075;-82
2022/04/05 10:54:39;;;;;;;9.70;1.50;;;;;;;;;;5041801;28;20040;-83
2022/04/05 10:57:35;;;;;;;7.15;1.20;;;;;;;;;;5046974;28;20498;-84
2022/04/05 11:00:14;;;;;;;4.53;1.30;;;;;;;;;;5038961;28;20026;-83
2022/04/05 11:02:40;;;;;;;5.43;1.10;;;;;;;;;;5034166;28;20040;-83
2022/04/05 11:05:18;;;;;;;8.77;1.70;;;;;;;;;;5037262;28;20676;-84
2022/04/05 11:07:53;;;;;;;10.52;2.28;;;;;;;;;;5038126;28;20033;-82
2022/04/05 11:10:20;;;;;;;4.25;1.17;;;;;;;;;;5047620;28;20033;-83
2022/04/05 11:12:46;;;;;;;4.43;0.98;;;;;;;;;;5038403;28;20083;-86
2022/04/05 11:15:14;;;;;;;4.43;0.90;;;;;;;;;;5046723;28;20033;-82
2022/04/05 11:17:40;;;;;;;2.67;0.93;;;;;;;;;;5042544;28;20029;-79
2022/04/05 11:20:08;;;;;;;4.10;1.05;;;;;;;;;;5047914;28;20136;-78
2022/04/05 11:22:38;;;;;;;5.97;1.20;;;;;;;;;;5045854;28;20025;-77
2022/04/05 11:25:04;;;;;;;6.82;1.40;;;;;;;;;;5038571;28;20048;-78
2022/04/05 11:27:38;;;;;;;2.03;0.93;;;;;;;;;;5047956;28;20108;-78
2022/04/05 11:30:23;;;;;;;6.32;1.30;;;;;;;;;;5040817;28;20496;-80
2022/04/05 11:36:10;;;;;;;6.13;1.23;;;;;;;;;;5037236;28;20025;-78
2022/04/05 11:38:36;;;;;;;6.07;1.33;;;;;;;;;;5046178;28;20471;-78
2022/04/05 11:41:08;;;;;;;6.53;1.30;;;;;;;;;;5048910;28;20024;-78
2022/04/05 11:43:40;;;;;;;5.95;1.33;;;;;;;;;;5048744;28;20040;-77
2022/04/05 11:46:11;;;;;;;3.63;1.00;;;;;;;;;;5047611;28;20102;-78
2022/04/05 11:48:45;;;;;;;7.13;1.17;;;;;;;;;;5034767;28;20021;-78
2022/04/05 11:51:12;;;;;;;5.22;0.90;;;;;;;;;;5046341;28;20425;-78
2022/04/05 11:53:38;;;;;;;5.45;1.33;;;;;;;;;;5045754;28;20024;-78
2022/04/05 11:56:24;;;;;;;6.80;1.00;;;;;;;;;;5036742;28;20064;-77
2022/04/05 11:58:51;;;;;;;4.55;1.27;;;;;;;;;;5047619;28;20040;-78
2022/04/05 12:01:37;;;;;;;3.08;1.27;;;;;;;;;;5047689;28;20032;-78
2022/04/05 12:04:06;;;;;;;4.57;1.27;;;;;;;;;;5042777;28;20539;-78
2022/04/05 12:06:34;;;;;;;3.25;1.10;;;;;;;;;;5046638;28;20045;-78
2022/04/05 12:09:02;;;;;;;7.15;1.55;;;;;;;;;;5044551;28;20094;-78
2022/04/05 12:11:30;;;;;;;4.32;1.00;;;;;;;;;;5047234;28;20048;-77
2022/04/05 12:14:00;;;;;;;4.25;0.90;;;;;;;;;;5048230;28;20018;-76
2022/04/05 12:16:27;;;;;;;6.32;1.10;;;;;;;;;;5048244;28;20659;-76
2022/04/05 12:18:54;;;;;;;4.22;1.10;;;;;;;;;;5047430;28;20021;-78
2022/04/05 12:21:21;;;;;;;7.05;1.15;;;;;;;;;;5047796;28;20549;-77
2022/04/05 12:23:47;;;;;;;3.85;1.38;;;;;;;;;;5045508;28;20037;-78
2022/04/05 12:26:21;;;;;;;6.82;1.60;;;;;;;;;;5047059;28;20029;-78
2022/04/05 12:28:51;;;;;;;7.35;1.23;;;;;;;;;;5043911;28;20476;-79
2022/04/05 12:31:21;;;;;;;2.20;1.23;;;;;;;;;;5051257;28;20041;-79
2022/04/05 12:34:09;;;;;;;6.18;1.35;;;;;;;;;;5051491;28;20543;-79
2022/04/05 12:36:36;;;;;;;4.85;1.40;;;;;;;;;;5043888;28;20025;-78
2022/04/05 12:39:04;;;;;;;4.20;1.27;;;;;;;;;;5043089;28;20018;-79
2022/04/05 12:41:36;;;;;;;4.32;1.30;;;;;;;;;;5051370;28;20028;-78
2022/04/05 12:44:03;;;;;;;4.00;1.20;;;;;;;;;;5058806;28;20256;-78
2022/04/05 12:46:36;;;;;;;4.32;1.38;;;;;;;;;;5051166;28;20551;-78
2022/04/05 12:49:18;;;;;;;3.17;0.93;;;;;;;;;;5047458;28;20387;-78
2022/04/05 12:51:45;;;;;;;6.65;1.42;;;;;;;;;;5058522;28;20029;-78
2022/04/05 12:54:31;;;;;;;6.97;1.70;;;;;;;;;;5056611;28;20025;-78
2022/04/05 12:57:15;;;;;;;13.38;1.58;;;;;;;;;;5048303;28;20052;-76
2022/04/05 12:59:42;;;;;;;6.75;1.55;;;;;;;;;;5049039;28;20020;-77
2022/04/05 13:02:15;;;;;;;3.58;1.30;;;;;;;;;;5050962;28;20043;-77
2022/04/05 13:04:41;;;;;;;5.43;1.55;;;;;;;;;;5055084;28;20357;-78
2022/04/05 13:07:07;;;;;;;5.25;1.52;;;;;;;;;;5050255;28;20203;-78
2022/04/05 13:09:35;;;;;;;5.00;1.35;;;;;;;;;;5048911;28;20124;-78
2022/04/05 13:12:14;;;;;;;5.20;1.55;;;;;;;;;;5050712;28;20025;-78
2022/04/05 13:14:40;;;;;;;10.88;1.63;;;;;;;;;;5042881;28;20119;-77
2022/04/05 13:17:08;;;;;;;3.53;1.48;;;;;;;;;;5047567;28;20372;-79
2022/04/05 13:19:34;;;;;;;6.18;1.70;;;;;;;;;;5052293;28;20024;-78
2022/04/05 13:22:00;;;;;;;5.18;1.60;;;;;;;;;;5046600;28;20075;-78
2022/04/05 13:24:38;;;;;;;2.70;1.30;;;;;;;;;;5048511;28;20371;-78
2022/04/05 13:27:04;;;;;;;6.82;1.55;;;;;;;;;;5048260;28;20075;-79
2022/04/05 13:29:30;;;;;;;7.57;2.00;;;;;;;;;;5048011;28;20043;-78
2022/04/05 13:32:01;;;;;;;7.53;1.80;;;;;;;;;;5046720;28;20021;-78
2022/04/05 13:34:28;;;;;;;3.30;1.10;;;;;;;;;;5034867;28;20388;-78
2022/04/05 13:36:56;;;;;;;5.25;1.55;;;;;;;;;;5041377;28;20033;-79
2022/04/05 13:39:23;;;;;;;5.63;1.70;;;;;;;;;;5044284;28;20489;-79
2022/04/05 13:41:52;;;;;;;4.05;1.48;;;;;;;;;;5050736;28;20025;-78
2022/04/05 13:44:19;;;;;;;6.35;1.63;;;;;;;;;;5042720;28;20647;-78
2022/04/05 13:46:45;;;;;;;4.85;1.70;;;;;;;;;;5043771;28;20029;-80
2022/04/05 13:49:16;;;;;;;3.95;1.30;;;;;;;;;;5048019;28;20037;-76
2022/04/05 13:51:42;;;;;;;3.97;1.35;;;;;;;;;;5045466;28;20048;-76
2022/04/05 13:54:11;;;;;;;4.68;1.35;;;;;;;;;;5038185;28;20498;-78
2022/04/05 13:56:37;;;;;;;3.13;1.52;;;;;;;;;;5039956;28;20096;-76
2022/04/05 13:59:04;;;;;;;5.88;1.90;;;;;;;;;;5046444;28;20025;-76
2022/04/05 14:01:29;;;;;;;4.50;1.45;;;;;;;;;;5035447;28;20554;-77
2022/04/05 14:06:50;;;;;;;6.43;1.60;;;;;;;;;;5020994;28;20506;-78
2022/04/05 14:09:16;;;;;;;12.30;1.58;;;;;;;;;;5042098;28;20037;-79
2022/04/05 14:11:43;;;;;;;8.15;1.70;;;;;;;;;;5042383;28;20025;-78
2022/04/05 14:14:09;;;;;;;7.07;1.80;;;;;;;;;;5035750;28;20017;-80
2022/04/05 14:16:35;;;;;;;4.63;1.83;;;;;;;;;;5046036;28;20032;-79
2022/04/05 14:19:01;;;;;;;6.57;1.52;;;;;;;;;;5043564;28;20021;-78
2022/04/05 14:21:27;;;;;;;4.35;1.40;;;;;;;;;;5045513;28;20472;-78
2022/04/05 14:23:53;;;;;;;4.78;1.55;;;;;;;;;;5041734;28;20021;-81
2022/04/05 14:26:19;;;;;;;2.78;1.58;;;;;;;;;;5043631;28;20102;-80
2022/04/05 14:28:46;;;;;;;10.07;2.38;;;;;;;;;;5042623;28;20045;-76
2022/04/05 14:31:12;;;;;;;4.85;1.75;;;;;;;;;;5045633;28;20064;-77
2022/04/05 14:33:38;;;;;;;5.68;1.83;;;;;;;;;;5037756;28;20110;-79
2022/04/05 14:36:22;;;;;;;7.25;2.00;;;;;;;;;;5049528;28;20041;-82
2022/04/05 14:38:49;;;;;;;10.63;2.20;;;;;;;;;;5048152;28;20053;-80
2022/04/05 14:41:15;;;;;;;9.40;2.60;;;;;;;;;;5041992;28;20025;-82
2022/04/05 14:43:40;;;;;;;6.32;1.75;;;;;;;;;;5044975;28;20071;-79
2022/04/05 14:46:06;;;;;;;6.75;1.90;;;;;;;;;;5050259;28;20037;-78
2022/04/05 14:48:32;;;;;;;6.82;1.85;;;;;;;;;;5046429;28;20060;-79
2022/04/05 14:51:00;;;;;;;7.72;2.03;;;;;;;;;;5047686;28;20035;-79